Time;durP1;ratioP1;P1;durP2;ratioP2;P2;SDS_P1;SDS_P2;PMS_P1;PMS_P2;Temp;Humidity;BMP_temperature;BMP_pressure;BME280_temperature;BME280_humidity;BME280_pressure;Samples;Min_cycle;Max_cycle;Signal;HPM_P1;HPM_P2
2023/02/25 00:02:22;;;;;;;1.70;1.30;;;5.80;99.90;;;6.32;100.00;97110.06;5006829;28;20489;-75
2023/02/25 00:04:52;;;;;;;3.80;1.87;;;5.70;99.90;;;6.23;100.00;97110.38;5005928;28;20562;-75
2023/02/25 00:07:27;;;;;;;4.83;1.57;;;5.60;99.90;;;6.19;100.00;97111.72;5003762;28;20502;-75
2023/02/25 00:09:56;;;;;;;2.10;1.40;;;5.50;99.90;;;6.15;100.00;97119.06;5005381;28;20466;-76
2023/02/25 00:12:28;;;;;;;3.27;1.30;;;5.60;99.90;;;6.16;100.00;97122.47;5005206;28;20889;-75
2023/02/25 00:14:58;;;;;;;1.47;1.30;;;5.60;99.90;;;6.13;100.00;97118.47;5006126;28;20455;-75
2023/02/25 00:17:27;;;;;;;1.53;1.17;;;5.50;99.90;;;6.13;100.00;97130.63;5004996;28;20475;-75
2023/02/25 00:19:57;;;;;;;3.53;1.20;;;5.50;99.90;;;6.11;100.00;97124.81;5003530;28;20502;-75
2023/02/25 00:22:29;;;;;;;2.77;1.43;;;5.50;99.90;;;6.18;100.00;97130.91;5006870;28;20463;-75
2023/02/25 00:24:59;;;;;;;1.70;1.20;;;5.60;99.90;;;6.17;100.00;97129.28;5004918;28;20506;-75
2023/02/25 00:27:30;;;;;;;4.03;1.33;;;5.50;99.90;;;6.09;100.00;97125.00;5004807;28;20471;-75
2023/02/25 00:29:59;;;;;;;1.73;1.20;;;5.50;99.90;;;6.11;100.00;97124.81;5003505;28;20565;-75
2023/02/25 00:32:29;;;;;;;2.40;1.20;;;5.50;99.90;;;6.14;100.00;97124.47;5004311;28;20975;-75
2023/02/25 00:35:00;;;;;;;3.07;1.30;;;5.60;99.90;;;6.17;100.00;97129.28;5005766;28;20466;-75
2023/02/25 00:37:31;;;;;;;1.73;1.10;;;5.50;99.90;;;6.13;100.00;97128.84;5004189;28;20479;-76
2023/02/25 00:40:03;;;;;;;5.80;1.47;;;5.60;99.90;;;6.10;100.00;97131.00;5004290;28;20536;-75
2023/02/25 00:42:33;;;;;;;4.47;1.37;;;5.50;99.90;;;6.08;100.00;97126.78;5005580;28;20459;-75
2023/02/25 00:45:02;;;;;;;1.70;1.17;;;5.50;99.90;;;6.06;100.00;97128.75;5005223;28;21068;-75
2023/02/25 00:47:32;;;;;;;1.70;1.27;;;5.50;99.90;;;6.05;100.00;97131.53;5006128;28;20458;-75
2023/02/25 00:50:02;;;;;;;3.37;1.33;;;5.40;99.90;;;6.06;100.00;97131.34;5004441;28;20558;-75
2023/02/25 00:52:33;;;;;;;2.23;1.10;;;5.50;99.90;;;6.06;100.00;97133.16;5003785;28;20458;-75
2023/02/25 00:55:03;;;;;;;3.23;1.50;;;5.50;99.90;;;6.06;100.00;97131.34;5004599;28;21000;-75
2023/02/25 00:57:32;;;;;;;4.93;1.77;;;5.50;99.90;;;5.98;100.00;97130.63;5003920;28;20481;-75
2023/02/25 01:00:02;;;;;;;4.00;1.30;;;5.50;99.90;;;6.00;100.00;97128.69;5002980;28;20591;-75
2023/02/25 01:02:32;;;;;;;1.83;1.43;;;5.40;99.90;;;6.02;100.00;97130.09;5005805;28;20467;-75
2023/02/25 01:05:02;;;;;;;2.83;1.13;;;5.40;99.90;;;6.01;100.00;97123.28;5003901;28;20524;-75
2023/02/25 01:07:32;;;;;;;6.60;1.60;;;5.40;99.90;;;6.06;100.00;97133.94;5004987;28;20927;-75
2023/02/25 01:10:03;;;;;;;12.83;1.60;;;5.50;99.90;;;6.04;100.00;97132.50;5002128;28;20494;-75
2023/02/25 01:12:33;;;;;;;6.60;1.40;;;5.40;99.90;;;6.05;100.00;97142.72;5004201;28;20463;-75
2023/02/25 01:15:04;;;;;;;5.50;1.67;;;5.50;99.90;;;6.07;100.00;97142.53;5002993;28;20510;-75
2023/02/25 01:17:34;;;;;;;3.70;1.50;;;5.50;99.90;;;6.11;100.00;97130.78;5004289;28;21003;-75
2023/02/25 01:20:10;;;;;;;2.23;1.37;;;5.50;99.90;;;5.96;100.00;97143.00;5005703;28;20550;-75
2023/02/25 01:22:42;;;;;;;5.20;1.77;;;5.40;99.90;;;5.93;100.00;97151.16;5004445;28;20525;-75
2023/02/25 01:25:16;;;;;;;3.83;1.70;;;5.40;99.90;;;5.95;100.00;97149.97;5007369;28;20459;-75
2023/02/25 01:27:46;;;;;;;11.37;2.07;;;5.40;99.90;;;5.91;100.00;97147.91;5004928;28;20463;-75
2023/02/25 01:30:17;;;;;;;12.20;2.40;;;5.30;99.90;;;5.90;100.00;97149.69;5007752;28;20493;-75
2023/02/25 01:32:46;;;;;;;4.90;1.53;;;5.40;99.90;;;5.86;100.00;97147.66;5005583;28;20995;-75
2023/02/25 01:35:16;;;;;;;2.63;1.43;;;5.30;99.90;;;5.90;100.00;97143.72;5006321;28;20474;-75
2023/02/25 01:37:48;;;;;;;5.13;1.97;;;5.40;99.90;;;5.94;100.00;97150.13;5005031;28;20471;-75
2023/02/25 01:40:18;;;;;;;4.30;1.70;;;5.40;99.90;;;5.87;100.00;97142.28;5006019;28;20544;-75
2023/02/25 01:42:48;;;;;;;2.60;1.30;;;5.30;99.90;;;5.93;100.00;97143.38;5005512;28;20471;-75
2023/02/25 01:45:32;;;;;;;3.87;2.10;;;5.30;99.90;;;5.91;100.00;97134.94;5006797;28;20891;-75
2023/02/25 01:48:14;;;;;;;3.57;1.80;;;5.30;99.90;;;5.84;100.00;97136.59;5008153;28;20447;-75
2023/02/25 01:51:09;;;;;;;16.80;2.30;;;5.20;99.90;;;5.91;100.00;97140.94;5004852;28;21052;-76
2023/02/25 01:53:46;;;;;;;10.83;2.17;;;5.30;99.90;;;5.87;100.00;97131.09;5005923;28;20486;-75
2023/02/25 01:56:22;;;;;;;9.33;2.23;;;5.30;99.90;;;5.91;100.00;97124.56;5005615;28;20745;-75
2023/02/25 01:58:54;;;;;;;4.70;1.97;;;5.40;99.90;;;5.89;100.00;97124.75;5006735;28;20470;-75
2023/02/25 02:01:28;;;;;;;7.97;2.43;;;5.30;99.90;;;5.88;100.00;97123.13;5004316;28;20962;-75
2023/02/25 02:03:57;;;;;;;7.13;2.30;;;5.30;99.90;;;5.87;100.00;97118.94;5002357;28;20459;-75
2023/02/25 02:06:34;;;;;;;6.10;2.30;;;5.20;99.90;;;5.84;100.00;97134.81;5003464;28;20463;-75
2023/02/25 02:09:10;;;;;;;11.53;2.17;;;5.20;99.90;;;5.87;100.00;97124.13;5001534;28;20470;-75
2023/02/25 02:11:40;;;;;;;5.70;1.87;;;5.20;99.90;;;5.82;100.00;97120.44;5002046;28;20478;-75
2023/02/25 02:14:16;;;;;;;4.10;1.90;;;5.30;99.90;;;5.78;100.00;97119.19;5002378;28;20480;-75
2023/02/25 02:17:20;;;;;;;6.23;1.80;;;5.20;99.90;;;5.82;100.00;97134.22;5002892;28;20463;-76
2023/02/25 02:20:12;;;;;;;4.80;1.67;;;5.20;99.90;;;5.78;100.00;97126.97;5003095;28;20479;-75
2023/02/25 02:22:57;;;;;;;6.27;2.57;;;5.20;99.90;;;5.75;100.00;97137.69;5004438;28;20459;-75
2023/02/25 02:26:38;;;;;;;12.80;2.50;;;5.20;99.90;;;5.61;100.00;97138.50;5004141;28;20481;-75
2023/02/25 02:30:03;;;;;;;12.47;2.90;;;5.10;99.90;;;5.56;100.00;97141.63;5001446;28;21139;-75
2023/02/25 02:32:43;;;;;;;6.73;2.20;;;5.00;99.90;;;5.63;100.00;97139.09;5005241;28;20517;-75
2023/02/25 02:35:23;;;;;;;10.10;2.30;;;5.10;99.90;;;5.63;100.00;97146.88;5002244;28;20540;-75
2023/02/25 02:38:07;;;;;;;7.83;1.93;;;5.10;99.90;;;5.68;100.00;97145.38;5003212;28;20477;-74
2023/02/25 02:40:53;;;;;;;7.47;2.50;;;5.20;99.90;;;5.67;100.00;97137.78;5004452;28;20581;-75
2023/02/25 02:43:39;;;;;;;4.10;2.00;;;5.10;99.90;;;5.71;100.00;97136.44;5003911;28;20498;-75
2023/02/25 02:46:18;;;;;;;10.10;2.33;;;5.10;99.90;;;5.73;100.00;97142.25;4999439;28;20466;-72
2023/02/25 02:48:56;;;;;;;14.83;4.27;;;5.20;99.90;;;5.73;100.00;97135.25;5002017;28;20833;-75
2023/02/25 02:51:35;;;;;;;8.50;2.10;;;5.10;99.90;;;5.72;100.00;97135.47;5001829;28;21026;-76
2023/02/25 02:54:10;;;;;;;6.43;3.67;;;5.10;99.90;;;5.74;100.00;97154.22;5003025;28;20997;-75
2023/02/25 02:56:44;;;;;;;11.70;2.47;;;5.10;99.90;;;5.74;100.00;97152.44;5003440;28;20501;-75
2023/02/25 02:59:20;;;;;;;11.97;1.90;;;5.00;99.90;;;5.78;100.00;97160.69;5003747;28;21008;-75
2023/02/25 03:01:56;;;;;;;4.20;2.00;;;5.10;99.90;;;5.81;100.00;97149.94;5004562;28;20458;-75
2023/02/25 03:04:35;;;;;;;9.40;2.60;;;5.10;99.90;;;5.83;100.00;97145.41;5004577;28;20984;-75
2023/02/25 03:07:10;;;;;;;5.47;2.53;;;5.20;99.90;;;5.83;100.00;97151.38;5004991;28;20550;-75
2023/02/25 03:09:47;;;;;;;5.63;1.90;;;5.10;99.90;;;5.87;100.00;97154.44;5004450;28;20482;-75
2023/02/25 03:12:17;;;;;;;3.20;1.87;;;5.20;99.90;;;5.86;100.00;97156.25;5001073;28;20459;-75
2023/02/25 03:14:47;;;;;;;10.83;2.50;;;5.30;99.90;;;5.69;100.00;97169.53;5001151;28;20950;-75
2023/02/25 03:17:22;;;;;;;6.23;2.30;;;5.10;99.90;;;5.71;100.00;97152.00;5001138;28;20500;-75
2023/02/25 03:20:00;;;;;;;3.33;1.97;;;5.20;99.90;;;5.71;100.00;97147.63;5002309;28;20553;-75
2023/02/25 03:22:38;;;;;;;2.97;1.90;;;5.10;99.90;;;5.71;100.00;97149.41;4999600;28;20469;-75
2023/02/25 03:25:15;;;;;;;3.73;1.80;;;5.10;99.90;;;5.74;100.00;97151.63;5005310;28;20557;-76
2023/02/25 03:27:48;;;;;;;4.90;3.20;;;5.10;99.90;;;5.75;100.00;97151.47;5007648;28;20463;-75
2023/02/25 03:30:28;;;;;;;4.80;1.93;;;5.10;99.90;;;5.71;100.00;97159.78;5007714;28;20468;-75
2023/02/25 03:33:09;;;;;;;8.93;2.10;;;5.10;99.90;;;5.76;100.00;97158.25;5009569;28;20868;-75
2023/02/25 03:35:43;;;;;;;4.73;2.10;;;5.10;99.90;;;5.74;100.00;97169.78;5006084;28;20467;-75
2023/02/25 03:38:20;;;;;;;8.40;2.17;;;5.10;99.90;;;5.68;100.00;97166.13;5005107;28;20513;-75
2023/02/25 03:40:54;;;;;;;6.73;1.90;;;5.10;99.90;;;5.67;100.00;97168.91;5005191;28;20585;-75
2023/02/25 03:43:31;;;;;;;7.10;2.23;;;5.00;99.90;;;5.69;100.00;97169.53;5007681;28;20467;-75
2023/02/25 03:46:03;;;;;;;5.23;1.93;;;5.00;99.90;;;5.71;100.00;97173.56;5007513;28;20467;-75
2023/02/25 03:48:38;;;;;;;4.73;1.80;;;5.10;99.90;;;5.71;100.00;97172.75;5004706;28;20462;-75
2023/02/25 03:51:10;;;;;;;9.23;2.00;;;5.10;99.90;;;5.75;100.00;97172.22;5006168;28;20492;-75
2023/02/25 03:53:41;;;;;;;9.30;2.10;;;5.10;99.90;;;5.71;100.00;97172.75;5005947;28;20565;-75
2023/02/25 03:56:13;;;;;;;8.60;1.80;;;5.10;99.90;;;5.66;100.00;97167.31;5005157;28;20486;-75
2023/02/25 03:58:43;;;;;;;6.10;2.00;;;5.00;99.90;;;5.68;100.00;97179.09;5007633;28;20470;-76
2023/02/25 04:01:17;;;;;;;7.63;1.60;;;5.10;99.90;;;5.72;100.00;97174.38;5005433;28;20490;-75
2023/02/25 04:03:46;;;;;;;9.30;2.07;;;5.10;99.90;;;5.61;100.00;97180.78;5005055;28;21069;-75
2023/02/25 04:06:21;;;;;;;5.40;2.20;;;5.00;99.90;;;5.59;100.00;97178.38;5005669;28;20466;-75
2023/02/25 04:08:52;;;;;;;4.43;1.97;;;5.00;99.90;;;5.67;100.00;97174.06;5004259;28;21285;-75
2023/02/25 04:11:23;;;;;;;3.03;1.40;;;5.00;99.90;;;5.68;100.00;97181.69;5005865;28;20489;-75
2023/02/25 04:13:53;;;;;;;4.90;2.47;;;5.00;99.90;;;5.63;100.00;97178.00;5006878;28;20467;-75
2023/02/25 04:16:22;;;;;;;3.40;1.90;;;5.00;99.90;;;5.68;100.00;97171.31;5004356;28;20457;-75
2023/02/25 04:18:51;;;;;;;5.57;1.53;;;5.00;99.90;;;5.72;100.00;97182.16;5004173;28;20544;-75
2023/02/25 04:21:30;;;;;;;3.03;1.87;;;5.00;99.90;;;5.76;100.00;97175.63;5003643;28;20498;-75
2023/02/25 04:24:00;;;;;;;2.30;1.97;;;5.20;99.90;;;5.77;100.00;97182.41;5005534;28;20533;-73
2023/02/25 04:26:29;;;;;;;5.87;2.17;;;5.10;99.90;;;5.76;100.00;97178.22;5004567;28;21170;-76
2023/02/25 04:28:59;;;;;;;3.03;1.30;;;5.10;99.90;;;5.74;100.00;97185.34;5005861;28;20485;-75
2023/02/25 04:31:29;;;;;;;5.70;1.80;;;5.10;99.90;;;5.75;100.00;97180.00;5003894;28;20501;-75
2023/02/25 04:33:59;;;;;;;4.90;1.80;;;5.10;99.90;;;5.80;100.00;97184.63;5006953;28;20459;-75
2023/02/25 04:36:33;;;;;;;8.90;2.23;;;5.10;99.90;;;5.75;100.00;97184.38;5003927;28;20478;-75
2023/02/25 04:39:06;;;;;;;12.30;4.13;;;5.20;99.90;;;5.71;100.00;97177.94;5000569;28;20463;-76
2023/02/25 04:41:37;;;;;;;3.63;1.80;;;5.10;99.90;;;5.69;100.00;97177.31;5003989;28;20522;-75
2023/02/25 04:44:08;;;;;;;7.30;1.80;;;5.00;99.90;;;5.71;100.00;97190.91;5006216;28;20465;-75
2023/02/25 04:46:40;;;;;;;10.63;1.93;;;5.00;99.90;;;5.68;100.00;97186.06;5006709;28;20463;-75
2023/02/25 04:49:10;;;;;;;3.83;1.60;;;5.10;99.90;;;5.66;100.00;97183.63;5007851;28;20441;-75
2023/02/25 04:51:42;;;;;;;3.70;1.90;;;5.10;99.90;;;5.65;100.00;97194.22;5006838;28;20466;-75
2023/02/25 04:54:12;;;;;;;7.07;2.30;;;5.10;99.90;;;5.55;100.00;97187.47;5007092;28;20502;-75
2023/02/25 04:56:43;;;;;;;4.97;2.57;;;5.00;99.90;;;5.55;100.00;97187.47;5004100;28;20524;-75
2023/02/25 04:59:13;;;;;;;6.80;1.90;;;4.90;99.90;;;5.62;100.00;97191.97;5007091;28;20965;-74
2023/02/25 05:01:44;;;;;;;11.87;1.70;;;5.00;99.90;;;5.66;100.00;97188.06;5007203;28;21009;-75
2023/02/25 05:04:14;;;;;;;13.00;2.53;;;5.10;99.90;;;5.65;100.00;97178.66;5006357;28;20549;-75
2023/02/25 05:06:46;;;;;;;6.03;1.77;;;5.00;99.90;;;5.67;100.00;97181.84;5006279;28;20466;-75
2023/02/25 05:09:17;;;;;;;9.90;2.00;;;5.00;99.90;;;5.68;100.00;97178.28;5007874;28;20458;-75
2023/02/25 05:11:47;;;;;;;7.83;2.50;;;4.90;99.90;;;5.65;100.00;97187.25;5006737;28;21189;-75
2023/02/25 05:14:17;;;;;;;10.00;1.93;;;4.90;99.90;;;5.57;100.00;97184.72;5006682;28;20467;-75
2023/02/25 05:16:47;;;;;;;4.80;1.80;;;4.90;99.90;;;5.58;100.00;97191.53;5003267;28;20553;-75
2023/02/25 05:19:21;;;;;;;4.10;2.43;;;5.00;99.90;;;5.50;100.00;97181.22;5002832;28;20454;-72
2023/02/25 05:21:54;;;;;;;8.43;2.17;;;5.00;99.90;;;5.48;100.00;97186.56;5000313;28;20534;-75
2023/02/25 05:24:25;;;;;;;8.30;2.40;;;5.00;99.90;;;5.47;100.00;97190.16;5003659;28;20463;-75
2023/02/25 05:26:55;;;;;;;21.33;4.37;;;4.90;99.90;;;5.49;100.00;97179.59;4997101;28;20556;-75
2023/02/25 05:29:25;;;;;;;4.90;2.20;;;4.90;99.90;;;5.46;100.00;97185.13;5002526;28;20462;-75
2023/02/25 05:31:55;;;;;;;9.40;2.60;;;4.90;99.90;;;5.46;100.00;97193.72;5002938;28;20467;-75
2023/02/25 05:34:25;;;;;;;6.00;2.80;;;4.90;99.90;;;5.47;100.00;97204.91;5001767;28;20461;-75
2023/02/25 05:36:57;;;;;;;4.07;1.73;;;4.90;99.90;;;5.39;100.00;97208.38;5006882;28;20466;-76
2023/02/25 05:39:26;;;;;;;15.40;3.00;;;4.90;99.90;;;5.20;100.00;97216.63;5008549;28;20952;-76
2023/02/25 05:41:57;;;;;;;4.90;3.27;;;4.60;99.90;;;5.21;100.00;97210.47;5007552;28;20910;-76
2023/02/25 05:44:27;;;;;;;14.87;3.30;;;4.50;99.90;;;5.24;100.00;97207.50;5008024;28;20524;-76
2023/02/25 05:46:58;;;;;;;10.83;2.33;;;4.50;99.90;;;5.26;100.00;97202.97;5006705;28;20466;-76
2023/02/25 05:49:28;;;;;;;21.83;2.73;;;4.60;99.90;;;5.29;100.00;97196.63;5008477;28;20463;-76
2023/02/25 05:51:59;;;;;;;7.50;2.03;;;4.70;99.90;;;5.26;100.00;97184.84;5008663;28;20495;-76
2023/02/25 05:54:29;;;;;;;4.93;1.90;;;4.60;99.90;;;5.20;100.00;97184.72;5006377;28;20490;-76
2023/02/25 05:56:59;;;;;;;5.70;2.30;;;4.50;99.90;;;5.28;100.00;97188.03;5008284;28;20473;-76
2023/02/25 05:59:29;;;;;;;5.77;2.10;;;4.70;99.90;;;5.33;100.00;97188.34;5006865;28;20517;-76
2023/02/25 06:01:59;;;;;;;7.33;2.30;;;4.70;99.90;;;5.38;100.00;97188.59;5006900;28;20556;-76
2023/02/25 06:04:29;;;;;;;6.07;2.03;;;4.80;99.90;;;5.26;100.00;97191.81;5006765;28;20478;-75
2023/02/25 06:07:03;;;;;;;6.20;2.23;;;4.50;99.90;;;5.27;100.00;97189.03;5007090;28;20494;-76
2023/02/25 06:09:33;;;;;;;10.27;2.27;;;4.50;99.90;;;5.18;100.00;97195.25;5008552;28;20520;-76
2023/02/25 06:12:03;;;;;;;2.70;2.20;;;4.30;99.90;;;5.20;100.00;97195.09;5007616;28;21311;-76
2023/02/25 06:14:33;;;;;;;8.37;1.90;;;4.50;99.90;;;5.22;100.00;97199.13;5006426;28;20554;-76
2023/02/25 06:17:03;;;;;;;6.17;1.93;;;4.50;99.90;;;5.23;100.00;97202.53;5006354;28;20479;-76
2023/02/25 06:19:33;;;;;;;8.80;2.90;;;4.50;99.90;;;5.19;100.00;97196.88;5005382;28;20496;-76
2023/02/25 06:22:04;;;;;;;8.20;2.10;;;4.50;99.90;;;5.25;100.00;97193.59;5007109;28;20574;-76
2023/02/25 06:24:35;;;;;;;4.23;1.73;;;4.60;99.90;;;5.30;100.00;97206.84;5007908;28;20513;-76
2023/02/25 06:27:05;;;;;;;11.23;2.00;;;4.70;99.90;;;5.29;100.00;97213.00;5007045;28;20463;-76
2023/02/25 06:29:35;;;;;;;2.90;1.90;;;4.70;99.90;;;5.19;100.00;97217.59;5006767;28;20469;-76
2023/02/25 06:32:05;;;;;;;6.53;2.17;;;4.50;99.90;;;5.15;100.00;97213.75;5007791;28;20565;-76
2023/02/25 06:34:36;;;;;;;5.50;2.17;;;4.50;99.90;;;5.14;100.00;97225.09;5005374;28;21055;-76
2023/02/25 06:37:07;;;;;;;3.83;1.77;;;4.50;99.90;;;5.13;100.00;97220.91;5006894;28;20510;-75
2023/02/25 06:39:41;;;;;;;10.90;2.00;;;4.40;99.90;;;5.14;100.00;97219.91;5007991;28;20451;-76
2023/02/25 06:42:10;;;;;;;5.80;2.03;;;4.50;99.90;;;5.11;100.00;97217.66;5005770;28;20491;-76
2023/02/25 06:44:41;;;;;;;7.53;2.00;;;4.50;99.90;;;5.12;100.00;97224.47;5008334;28;20463;-76
2023/02/25 06:47:10;;;;;;;7.70;2.73;;;4.50;99.90;;;5.07;100.00;97221.56;5007095;28;20474;-76
2023/02/25 06:49:39;;;;;;;6.53;2.20;;;4.50;99.90;;;5.12;100.00;97228.84;5006919;28;20506;-76
2023/02/25 06:52:10;;;;;;;6.57;2.10;;;4.50;99.90;;;5.12;100.00;97231.44;5005810;28;20535;-75
2023/02/25 06:54:39;;;;;;;5.40;1.77;;;4.50;99.90;;;5.06;100.00;97235.53;5007018;28;20526;-76
2023/02/25 06:57:10;;;;;;;12.53;2.10;;;4.40;99.90;;;5.14;100.00;97239.84;5007769;28;20504;-76
2023/02/25 06:59:40;;;;;;;5.67;2.27;;;4.50;99.90;;;5.04;100.00;97235.69;5005647;28;20474;-76
2023/02/25 07:02:12;;;;;;;4.60;1.67;;;4.30;99.90;;;4.99;100.00;97242.38;5006210;28;20508;-75
2023/02/25 07:04:42;;;;;;;6.13;2.00;;;4.30;99.90;;;5.09;100.00;97232.59;5006311;28;20492;-76
2023/02/25 07:07:14;;;;;;;7.70;2.10;;;4.50;99.90;;;5.10;100.00;97243.75;5006530;28;20494;-75
2023/02/25 07:09:43;;;;;;;11.77;2.00;;;4.40;99.90;;;5.10;100.00;97246.34;5007049;28;20542;-76
2023/02/25 07:12:13;;;;;;;5.07;1.53;;;4.50;99.90;;;5.10;100.00;97257.53;5005227;28;20891;-76
2023/02/25 07:14:44;;;;;;;7.00;1.83;;;4.40;99.90;;;5.14;100.00;97261.34;5006652;28;20470;-77
2023/02/25 07:17:13;;;;;;;3.80;1.40;;;4.40;99.90;;;5.18;100.00;97272.19;5007219;28;20526;-76
2023/02/25 07:19:44;;;;;;;1.80;1.33;;;4.50;99.90;;;5.17;100.00;97274.00;5005391;28;20835;-76
2023/02/25 07:22:18;;;;;;;9.77;2.27;;;4.50;99.90;;;5.19;100.00;97274.63;5006403;28;20540;-76
2023/02/25 07:24:51;;;;;;;6.40;2.00;;;4.60;99.90;;;5.16;100.00;97274.97;5007863;28;20469;-76
2023/02/25 07:27:21;;;;;;;7.67;1.50;;;4.50;99.90;;;5.07;100.00;97281.97;5007144;28;20565;-76
2023/02/25 07:29:50;;;;;;;8.53;1.70;;;4.50;99.90;;;5.08;100.00;97264.66;5005494;28;20492;-76
2023/02/25 07:32:19;;;;;;;1.67;1.20;;;4.50;99.90;;;5.07;100.00;97265.63;5005815;28;20479;-76
2023/02/25 07:34:49;;;;;;;3.37;1.80;;;4.50;99.90;;;5.10;100.00;97256.72;5005988;28;21064;-76
2023/02/25 07:37:19;;;;;;;5.43;2.20;;;4.40;99.90;;;4.98;100.00;97253.69;5005424;28;20884;-76
2023/02/25 07:39:49;;;;;;;2.10;1.50;;;4.30;99.90;;;4.98;100.00;97261.47;5006652;28;20550;-76
2023/02/25 07:42:20;;;;;;;6.60;1.20;;;4.30;99.90;;;5.06;100.00;97271.78;5005389;28;20494;-76
2023/02/25 07:44:50;;;;;;;3.93;1.83;;;4.40;99.90;;;5.02;100.00;97278.28;5005103;28;20470;-76
2023/02/25 07:47:21;;;;;;;11.83;3.17;;;4.30;99.90;;;5.08;100.00;97282.78;5006020;28;21205;-76
2023/02/25 07:49:51;;;;;;;3.63;1.43;;;4.50;99.90;;;5.06;100.00;97275.19;5006844;28;20811;-76
2023/02/25 07:52:23;;;;;;;15.70;2.30;;;4.50;99.90;;;5.05;100.00;97270.16;5006961;28;20466;-76
2023/02/25 07:54:53;;;;;;;6.23;1.83;;;4.50;99.90;;;5.01;100.00;97266.31;5007024;28;20542;-75
2023/02/25 07:57:24;;;;;;;6.87;2.10;;;4.30;99.90;;;5.06;100.00;97271.78;5005427;28;20524;-75
2023/02/25 07:59:53;;;;;;;3.83;1.30;;;4.50;99.90;;;5.05;100.00;97283.94;5005214;28;20549;-76
2023/02/25 08:02:22;;;;;;;5.97;1.93;;;4.50;99.90;;;5.04;100.00;97287.50;5005004;28;20577;-76
2023/02/25 08:04:51;;;;;;;8.13;1.63;;;4.40;99.90;;;5.06;100.00;97290.75;5005664;28;20558;-76
2023/02/25 08:07:23;;;;;;;9.37;1.97;;;4.30;99.90;;;5.07;100.00;97289.75;5006776;28;20494;-76
2023/02/25 08:09:55;;;;;;;8.90;1.80;;;4.30;99.90;;;5.05;100.00;97280.53;5006166;28;20538;-75
2023/02/25 08:12:25;;;;;;;8.23;1.70;;;4.40;99.90;;;5.14;100.00;97284.69;5009179;28;21071;-76
2023/02/25 08:14:56;;;;;;;4.93;1.57;;;4.50;99.90;;;5.12;100.00;97291.84;5010500;28;20473;-75
2023/02/25 08:17:30;;;;;;;6.17;1.60;;;4.50;99.90;;;5.16;100.00;97284.53;5010261;28;21364;-76
2023/02/25 08:19:59;;;;;;;3.17;1.20;;;4.60;99.90;;;5.12;100.00;97291.03;5011176;28;20469;-76
2023/02/25 08:22:30;;;;;;;8.30;1.87;;;4.50;99.90;;;5.16;100.00;97287.94;5008747;28;20509;-76
2023/02/25 08:24:59;;;;;;;10.17;1.90;;;4.60;99.90;;;5.12;100.00;97293.59;5008997;28;20961;-76
2023/02/25 08:27:29;;;;;;;18.63;2.30;;;4.60;99.90;;;5.18;100.00;97291.13;5010660;28;20485;-75
2023/02/25 08:29:59;;;;;;;6.53;1.87;;;4.70;99.90;;;5.03;100.00;97295.47;5009133;28;20466;-76
2023/02/25 08:32:29;;;;;;;7.33;1.97;;;4.50;99.90;;;5.10;100.00;97298.16;5008860;28;20469;-76
2023/02/25 08:34:59;;;;;;;6.53;2.17;;;4.50;99.90;;;5.11;100.00;97300.56;5009589;28;20462;-75
2023/02/25 08:37:30;;;;;;;2.70;1.43;;;4.50;99.90;;;5.10;100.00;97295.56;5007859;28;20481;-75
2023/02/25 08:39:59;;;;;;;6.60;1.50;;;4.50;99.90;;;5.16;100.00;97294.88;5009183;28;20470;-76
2023/02/25 08:42:30;;;;;;;3.13;1.37;;;4.60;99.90;;;5.17;100.00;97302.50;5008345;28;20937;-75
2023/02/25 08:45:00;;;;;;;9.97;1.90;;;4.70;99.90;;;5.12;100.00;97293.59;5008653;28;20984;-76
2023/02/25 08:47:29;;;;;;;8.57;2.27;;;4.60;99.90;;;5.17;100.00;97291.31;5008009;28;20546;-76
2023/02/25 08:50:00;;;;;;;3.83;1.47;;;4.60;99.90;;;5.20;100.00;97291.78;5008606;28;20534;-76
2023/02/25 08:52:32;;;;;;;18.73;2.07;;;4.60;99.90;;;5.24;100.00;97292.25;5008422;28;21050;-76
2023/02/25 08:55:03;;;;;;;2.50;1.17;;;4.70;99.90;;;5.23;100.00;97286.25;5008484;28;20457;-76
2023/02/25 08:57:33;;;;;;;5.90;1.50;;;4.70;99.90;;;5.28;100.00;97283.94;5009578;28;20466;-76
2023/02/25 09:00:05;;;;;;;5.23;1.70;;;4.70;99.90;;;5.28;100.00;97283.13;5008880;28;20502;-76
2023/02/25 09:02:34;;;;;;;4.80;1.50;;;4.70;99.90;;;5.24;100.00;97287.06;5006864;28;20459;-76
2023/02/25 09:05:05;;;;;;;10.23;1.83;;;4.70;99.90;;;5.22;100.00;97295.00;5008454;28;20485;-76
2023/02/25 09:07:37;;;;;;;4.30;1.60;;;4.70;99.90;;;5.27;100.00;97297.91;5008911;28;20548;-76
2023/02/25 09:10:08;;;;;;;8.20;1.90;;;4.80;99.90;;;5.22;100.00;97283.81;5007404;28;20470;-76
2023/02/25 09:12:39;;;;;;;11.47;1.93;;;4.70;99.90;;;5.21;100.00;97293.38;5008823;28;20565;-76
2023/02/25 09:15:13;;;;;;;3.63;1.73;;;4.70;99.90;;;5.24;100.00;97290.44;5007334;28;20516;-76
2023/02/25 09:17:43;;;;;;;8.10;1.97;;;4.70;99.90;;;5.23;100.00;97290.63;5008929;28;20467;-76
2023/02/25 09:20:13;;;;;;;5.10;1.60;;;4.70;99.90;;;5.31;100.00;97288.78;5008145;28;20466;-76
2023/02/25 09:22:45;;;;;;;3.23;2.10;;;4.80;99.90;;;5.35;100.00;97294.41;5005748;28;20518;-76
2023/02/25 09:25:15;;;;;;;9.53;1.27;;;4.80;99.90;;;5.34;100.00;97291.06;5007095;28;20463;-76
2023/02/25 09:27:46;;;;;;;1.80;1.10;;;4.90;99.90;;;5.42;100.00;97279.78;5006800;28;20467;-76
2023/02/25 09:30:15;;;;;;;4.43;1.50;;;4.90;99.90;;;5.42;100.00;97279.78;5007948;28;20467;-76
2023/02/25 09:32:45;;;;;;;2.77;1.57;;;4.90;99.90;;;5.48;100.00;97294.66;5006884;28;20545;-76
2023/02/25 09:35:15;;;;;;;8.47;1.80;;;5.00;99.90;;;5.43;100.00;97297.78;5006779;28;21175;-76
2023/02/25 09:37:47;;;;;;;10.43;1.63;;;4.90;99.90;;;5.48;100.00;97292.84;5008041;28;20482;-76
2023/02/25 09:40:21;;;;;;;5.77;1.47;;;5.00;99.90;;;5.54;100.00;97293.97;5007990;28;20487;-76
2023/02/25 09:43:08;;;;;;;4.43;1.10;;;5.00;99.90;;;5.61;100.00;97310.44;5006494;28;20476;-76
2023/02/25 09:45:38;;;;;;;2.70;1.30;;;5.10;99.90;;;5.55;100.00;97298.97;5007057;28;20865;-76
2023/02/25 09:48:19;;;;;;;3.70;1.10;;;5.10;99.90;;;5.53;98.95;97287.16;5008179;28;20530;-76
2023/02/25 09:50:53;;;;;;;6.33;1.30;;;5.00;99.90;;;5.56;98.88;97276.44;5007195;28;20465;-76
2023/02/25 09:53:32;;;;;;;1.53;1.17;;;5.10;99.90;;;5.56;97.23;97287.63;5007501;28;21059;-76
2023/02/25 09:56:05;;;;;;;4.67;1.30;;;5.20;99.90;;;5.58;97.85;97275.31;5007375;28;20467;-76
2023/02/25 09:58:43;;;;;;;5.10;1.27;;;5.10;99.90;;;5.67;98.98;97286.41;5007737;28;20474;-76
2023/02/25 10:01:25;;;;;;;5.37;1.03;;;5.20;99.90;;;5.65;96.97;97285.78;5007834;28;20574;-76
2023/02/25 10:04:03;;;;;;;3.90;1.50;;;5.20;99.90;;;5.68;95.34;97289.81;5007020;28;20593;-76
2023/02/25 10:06:38;;;;;;;3.10;1.37;;;5.20;99.90;;;5.58;94.38;97288.28;5008599;28;20463;-76
2023/02/25 10:09:25;;;;;;;4.23;1.30;;;5.10;99.90;;;5.59;93.67;97276.91;5007978;28;20486;-76
2023/02/25 10:12:13;;;;;;;12.03;1.63;;;5.10;99.90;;;5.57;94.60;97284.06;5007105;28;20455;-76
2023/02/25 10:15:15;;;;;;;4.93;1.97;;;5.10;99.90;;;5.54;95.82;97271.44;5006866;28;20553;-76
2023/02/25 10:18:10;;;;;;;5.10;1.40;;;5.00;99.90;;;5.49;95.18;97270.34;5007179;28;20466;-77
2023/02/25 10:21:04;;;;;;;6.23;1.30;;;5.00;99.90;;;5.48;98.75;97263.56;5005049;28;20497;-76
2023/02/25 10:24:16;;;;;;;4.67;1.33;;;4.90;99.90;;;5.58;100.00;97284.88;5007277;28;20501;-76
2023/02/25 10:26:51;;;;;;;6.93;1.60;;;5.10;99.90;;;5.54;100.00;97291.38;5007103;28;20517;-76
2023/02/25 10:29:30;;;;;;;2.73;1.20;;;5.10;99.90;;;5.64;100.00;97296.31;5008035;28;20517;-76
2023/02/25 10:32:15;;;;;;;4.30;1.53;;;5.20;99.90;;;5.59;100.00;97309.78;5006796;28;20458;-76
2023/02/25 10:34:46;;;;;;;12.20;1.53;;;5.10;99.90;;;5.62;100.00;97303.47;5007167;28;20502;-76
2023/02/25 10:37:24;;;;;;;7.63;1.27;;;5.20;99.90;;;5.56;100.00;97292.81;5006403;28;20474;-76
2023/02/25 10:39:59;;;;;;;7.33;1.77;;;5.10;99.90;;;5.54;100.00;97292.19;5006838;28;20568;-76
2023/02/25 10:42:35;;;;;;;3.93;1.47;;;5.00;99.90;;;5.55;100.00;97293.78;5005198;28;20513;-75
2023/02/25 10:45:10;;;;;;;5.90;1.73;;;5.00;99.90;;;5.46;100.00;97296.63;5005798;28;20498;-75
2023/02/25 10:47:52;;;;;;;4.20;1.77;;;4.80;99.90;;;5.56;100.00;97305.78;5007932;28;20971;-77
2023/02/25 10:50:25;;;;;;;4.67;1.40;;;5.00;99.90;;;5.67;100.00;97298.56;5008627;28;20459;-76
2023/02/25 10:53:16;;;;;;;7.73;1.80;;;5.10;99.90;;;5.68;100.00;97303.59;5007217;28;20498;-76